Time;durP1;ratioP1;P1;durP2;ratioP2;P2;SDS_P1;SDS_P2;PMS_P1;PMS_P2;Temp;Humidity;BMP_temperature;BMP_pressure;BME280_temperature;BME280_humidity;BME280_pressure;Samples;Min_cycle;Max_cycle;Signal;HPM_P1;HPM_P2
2022/05/20 00:02:06;;;;;;;;;;;;;;;15.38;45.54;101222.97;1746666;82;20226;-91
2022/05/20 00:04:33;;;;;;;;;;;;;;;15.36;45.69;101216.31;1746448;82;20226;-90
2022/05/20 00:07:06;;;;;;;;;;;;;;;15.35;45.86;101212.78;1746119;82;20922;-90
2022/05/20 00:09:48;;;;;;;;;;;;;;;15.34;45.88;101208.33;1746205;82;20712;-89
2022/05/20 00:12:26;;;;;;;;;;;;;;;15.34;45.97;101203.47;1774709;80;21671;-91
2022/05/20 00:14:52;;;;;;;;;;;;;;;15.34;46.21;101202.14;1777221;80;20169;-90
2022/05/20 00:17:51;;;;;;;;;;;;;;;15.33;46.22;101201.26;1748448;80;20163;-91
2022/05/20 00:20:18;;;;;;;;;;;;;;;15.34;46.32;101191.53;1745719;80;20965;-86
2022/05/20 00:22:45;;;;;;;;;;;;;;;15.35;46.36;101189.31;1731080;82;20210;-86
2022/05/20 00:27:57;;;;;;;;;;;;;;;15.40;46.75;101184.09;1723938;81;20784;-86
2022/05/20 00:30:24;;;;;;;;;;;;;;;15.45;46.68;101177.96;1745181;80;20516;-86
2022/05/20 00:37:00;;;;;;;;;;;;;;;15.52;46.74;101177.17;1746266;81;20233;-92
2022/05/20 00:39:39;;;;;;;;;;;;;;;15.57;47.00;101174.99;1746587;82;22566;-91
2022/05/20 00:45:44;;;;;;;;;;;;;;;15.60;47.13;101174.59;1744096;82;20261;-86
2022/05/20 00:48:11;;;;;;;;;;;;;;;15.61;47.22;101169.72;1743233;82;20831;-87
2022/05/20 00:50:38;;;;;;;;;;;;;;;15.63;47.30;101174.61;1743716;82;20206;-86
2022/05/20 00:53:05;;;;;;;;;;;;;;;15.64;47.25;101168.44;1717246;82;21742;-87
2022/05/20 00:55:31;;;;;;;;;;;;;;;15.67;47.09;101167.57;1718293;82;20479;-86
2022/05/20 00:58:04;;;;;;;;;;;;;;;15.70;47.02;101163.64;1737872;82;20470;-87
2022/05/20 01:00:31;;;;;;;;;;;;;;;15.72;46.91;101162.77;1744367;82;20763;-87
2022/05/20 01:03:01;;;;;;;;;;;;;;;15.77;46.97;101163.31;1742779;82;20281;-87
2022/05/20 01:05:33;;;;;;;;;;;;;;;15.81;46.81;101159.81;1744412;82;21919;-87
2022/05/20 01:08:00;;;;;;;;;;;;;;;15.86;46.85;101158.98;1743990;81;21149;-87
2022/05/20 01:10:26;;;;;;;;;;;;;;;15.92;46.79;101158.15;1766151;80;20229;-86
2022/05/20 01:12:55;;;;;;;;;;;;;;;15.97;46.77;101152.42;1744019;82;21236;-87
2022/05/20 01:15:21;;;;;;;;;;;;;;;16.04;46.65;101152.05;1743686;81;20265;-86
2022/05/20 01:17:52;;;;;;;;;;;;;;;16.10;46.58;101146.78;1744401;80;21932;-87
2022/05/20 01:20:22;;;;;;;;;;;;;;;16.16;46.70;101149.52;1744539;81;20237;-87
2022/05/20 01:22:55;;;;;;;;;;;;;;;16.22;46.44;101149.56;1749077;80;20200;-87
2022/05/20 01:25:22;;;;;;;;;;;;;;;16.28;46.42;101146.94;1748661;80;20638;-86
2022/05/20 01:27:49;;;;;;;;;;;;;;;16.35;46.24;101146.98;1740773;81;20896;-87
2022/05/20 01:30:18;;;;;;;;;;;;;;;16.43;46.07;101143.52;1744962;82;22546;-87
2022/05/20 01:32:44;;;;;;;;;;;;;;;16.53;46.08;101141.80;1743715;81;20521;-86
2022/05/20 01:35:14;;;;;;;;;;;;;;;16.64;45.96;101139.23;1744537;81;20222;-86
2022/05/20 01:38:18;;;;;;;;;;;;;;;16.71;45.74;101133.95;1745308;81;20230;-92
2022/05/20 01:55:18;;;;;;;;;;;;;;;17.26;44.88;101128.03;1685380;84;20186;-93
2022/05/20 01:58:03;;;;;;;;;;;;;;;17.36;44.69;101124.07;1718373;82;20403;-87
2022/05/20 02:00:31;;;;;;;;;;;;;;;17.41;44.60;101119.21;1715302;83;21853;-87
2022/05/20 02:03:08;;;;;;;;;;;;;;;17.46;44.47;101125.89;1715571;81;20337;-87
2022/05/20 02:05:55;;;;;;;;;;;;;;;17.48;44.37;101131.66;1714177;82;20239;-88
2022/05/20 02:08:24;;;;;;;;;;;;;;;17.52;44.33;101133.00;1712940;81;20362;-87
2022/05/20 02:11:05;;;;;;;;;;;;;;;17.55;44.31;101123.26;1715102;81;20681;-92
2022/05/20 02:13:33;;;;;;;;;;;;;;;17.57;44.32;101130.80;1715040;83;21787;-87
2022/05/20 02:16:02;;;;;;;;;;;;;;;17.60;44.33;101122.80;1715316;82;20336;-91
2022/05/20 02:18:49;;;;;;;;;;;;;;;17.63;44.38;101121.48;1715883;80;20227;-92
2022/05/20 02:25:22;;;;;;;;;;;;;;;17.71;44.36;101115.30;1715660;83;20564;-90
2022/05/20 02:31:50;;;;;;;;;;;;;;;17.81;44.30;101103.75;1715629;81;20216;-91
2022/05/20 02:34:16;;;;;;;;;;;;;;;17.88;44.28;101098.91;1715206;83;20239;-88
2022/05/20 02:36:43;;;;;;;;;;;;;;;17.94;44.28;101100.23;1714229;82;20226;-87
2022/05/20 02:46:25;;;;;;;;;;;;;;;18.11;44.33;101099.36;1728393;82;20211;-89
2022/05/20 02:48:52;;;;;;;;;;;;;;;18.15;44.35;101098.04;1687676;83;20197;-89
2022/05/20 02:51:19;;;;;;;;;;;;;;;18.18;44.42;101102.47;1712094;81;20246;-90
2022/05/20 02:53:47;;;;;;;;;;;;;;;18.21;44.48;101095.36;1692053;82;20237;-89
2022/05/20 02:56:13;;;;;;;;;;;;;;;18.25;44.51;101088.25;1716137;81;21758;-89
2022/05/20 03:11:46;;;;;;;;;;;;;;;18.43;44.94;101093.56;1687662;85;20219;-93
2022/05/20 03:14:13;;;;;;;;;;;;;;;18.45;45.11;101109.56;1685933;85;20475;-89
2022/05/20 03:16:40;;;;;;;;;;;;;;;18.45;45.38;101119.77;1707825;81;20246;-88
2022/05/20 03:19:09;;;;;;;;;;;;;;;18.46;45.50;101111.31;1717215;81;20379;-87
2022/05/20 03:21:35;;;;;;;;;;;;;;;18.45;45.51;101100.23;1717563;82;20228;-87
2022/05/20 03:24:02;;;;;;;;;;;;;;;18.47;45.51;101097.11;1715805;81;23126;-87
2022/05/20 03:26:29;;;;;;;;;;;;;;;18.48;45.65;101091.33;1715267;81;20240;-87
2022/05/20 03:29:02;;;;;;;;;;;;;;;18.50;45.76;101098.88;1715042;82;20250;-87
2022/05/20 03:31:32;;;;;;;;;;;;;;;18.49;45.77;101095.75;1715489;81;20907;-88
2022/05/20 03:34:05;;;;;;;;;;;;;;;18.50;45.75;101096.20;1688077;84;20213;-87
2022/05/20 03:36:28;;;;;;;;;;;;;;;18.52;45.80;101103.75;1703988;82;22744;-87
2022/05/20 03:38:54;;;;;;;;;;;;;;;18.53;45.89;101108.20;1700343;83;20787;-87
2022/05/20 03:45:05;;;;;;;;;;;;;;;18.55;46.16;101109.09;1716971;82;20201;-87
2022/05/20 03:47:58;;;;;;;;;;;;;;;18.57;46.32;101114.84;1712965;82;20235;-89
2022/05/20 03:53:56;;;;;;;;;;;;;;;18.64;46.61;101115.73;1717194;83;20160;-91
2022/05/20 03:59:51;;;;;;;;;;;;;;;18.76;46.93;101108.14;1710990;81;20216;-92
2022/05/20 04:02:17;;;;;;;;;;;;;;;18.83;47.04;101118.81;1712341;83;20216;-88
2022/05/20 04:04:46;;;;;;;;;;;;;;;18.88;47.12;101113.91;1711214;83;21973;-86
2022/05/20 04:07:17;;;;;;;;;;;;;;;18.90;47.18;101111.69;1712091;83;20307;-89
2022/05/20 04:09:43;;;;;;;;;;;;;;;18.93;47.23;101124.13;1695543;83;20367;-88
2022/05/20 04:15:37;;;;;;;;;;;;;;;18.95;47.36;101111.20;1706816;83;20310;-90
2022/05/20 04:21:47;;;;;;;;;;;;;;;18.93;47.67;101114.78;1711184;83;20437;-89
2022/05/20 04:24:40;;;;;;;;;;;;;;;18.91;48.01;101117.45;1685608;83;20453;-96
2022/05/20 04:31:06;;;;;;;;;;;;;;;18.91;48.40;101107.23;1713172;83;20553;-91
2022/05/20 04:37:03;;;;;;;;;;;;;;;19.17;48.87;101094.66;1704467;79;76034;-86
2022/05/20 04:39:30;;;;;;;;;;;;;;;19.47;49.03;101087.84;1655211;82;20798;-89
2022/05/20 04:47:37;;;;;;;;;;;;;;;23.46;48.78;101071.84;1701202;82;21721;-92
2022/05/20 04:50:06;;;;;;;;;;;;;;;26.79;46.80;101071.35;1695193;82;20302;-91
2022/05/20 04:52:41;;;;;;;;;;;;;;;29.66;43.24;101074.33;1702989;82;20141;-92
2022/05/20 04:55:08;;;;;;;;;;;;;;;31.41;40.27;101074.16;1704903;81;20313;-91
2022/05/20 04:57:41;;;;;;;;;;;;;;;32.83;38.11;101074.79;1690001;82;20235;-91
2022/05/20 05:00:26;;;;;;;;;;;;;;;33.65;36.56;101069.03;1669912;82;21938;-91
2022/05/20 05:02:53;;;;;;;;;;;;;;;34.52;35.02;101074.96;1696872;82;20231;-90
2022/05/20 05:05:23;;;;;;;;;;;;;;;34.38;33.74;101077.78;1705538;82;20201;-89
2022/05/20 05:07:51;;;;;;;;;;;;;;;34.86;33.11;101080.78;1695068;82;20814;-89
2022/05/20 05:10:21;;;;;;;;;;;;;;;35.41;32.35;101087.68;1704868;82;20263;-91
2022/05/20 05:12:52;;;;;;;;;;;;;;;35.66;31.57;101072.14;1671230;83;21018;-93
2022/05/20 05:15:20;;;;;;;;;;;;;;;35.70;31.07;101083.77;1645742;82;20572;-92
2022/05/20 05:20:36;;;;;;;;;;;;;;;36.39;30.25;101092.16;1702934;82;20828;-87
2022/05/20 05:23:03;;;;;;;;;;;;;;;37.03;29.48;101093.52;1692313;82;20233;-87
2022/05/20 05:25:31;;;;;;;;;;;;;;;37.47;29.04;101094.00;1690709;82;21766;-87
2022/05/20 05:28:05;;;;;;;;;;;;;;;37.88;28.50;101095.63;1696248;82;20602;-87
2022/05/20 05:30:30;;;;;;;;;;;;;;;38.14;28.12;101085.18;1681777;82;20242;-87
2022/05/20 05:32:57;;;;;;;;;;;;;;;38.11;27.91;101089.59;1693684;82;20311;-86
2022/05/20 05:35:26;;;;;;;;;;;;;;;37.52;27.19;101095.87;1685578;82;20250;-84
2022/05/20 05:37:54;;;;;;;;;;;;;;;35.75;27.33;101097.49;1694453;81;21931;-87
2022/05/20 05:40:23;;;;;;;;;;;;;;;33.72;28.31;101091.34;1731645;81;20249;-85
2022/05/20 05:42:55;;;;;;;;;;;;;;;32.00;29.61;101096.14;1710941;82;20755;-86
2022/05/20 05:45:22;;;;;;;;;;;;;;;30.50;30.96;101091.83;1711690;82;20283;-86
2022/05/20 05:47:51;;;;;;;;;;;;;;;29.36;32.32;101097.05;1707319;82;20999;-86
2022/05/20 05:50:17;;;;;;;;;;;;;;;28.49;33.45;101091.06;1703143;82;21695;-85
2022/05/20 05:52:46;;;;;;;;;;;;;;;27.78;34.45;101091.82;1691957;82;20228;-85
2022/05/20 05:55:14;;;;;;;;;;;;;;;27.13;35.49;101093.03;1657680;82;20233;-86
2022/05/20 05:57:41;;;;;;;;;;;;;;;26.53;36.46;101085.30;1709043;82;20407;-86
2022/05/20 06:00:08;;;;;;;;;;;;;;;26.07;37.44;101097.73;1714870;82;20252;-86
2022/05/20 06:02:35;;;;;;;;;;;;;;;25.55;38.23;101084.11;1704154;82;21779;-86
2022/05/20 06:05:01;;;;;;;;;;;;;;;25.22;39.10;101099.01;1706651;82;20252;-85
2022/05/20 06:07:28;;;;;;;;;;;;;;;24.96;39.87;101100.26;1713880;82;20238;-86
2022/05/20 06:09:54;;;;;;;;;;;;;;;24.70;40.35;101109.08;1701916;82;20209;-86
2022/05/20 06:12:21;;;;;;;;;;;;;;;24.36;41.37;101097.86;1713097;82;20283;-85
2022/05/20 06:14:48;;;;;;;;;;;;;;;24.06;42.11;101105.80;1708952;82;21948;-85
2022/05/20 06:17:14;;;;;;;;;;;;;;;23.83;42.76;101113.10;1710600;82;20245;-85
2022/05/20 06:19:41;;;;;;;;;;;;;;;23.66;43.32;101122.41;1709939;82;20269;-87
2022/05/20 06:22:08;;;;;;;;;;;;;;;23.48;43.89;101110.73;1721364;81;20175;-87
2022/05/20 06:24:44;;;;;;;;;;;;;;;23.33;44.62;101128.55;1715240;80;20175;-87
2022/05/20 06:27:07;;;;;;;;;;;;;;;23.15;44.96;101115.95;1717835;82;21789;-86
2022/05/20 06:29:38;;;;;;;;;;;;;;;23.05;45.42;101114.39;1715521;82;20215;-85
2022/05/20 06:32:02;;;;;;;;;;;;;;;22.96;45.78;101129.31;1716780;82;20369;-87
2022/05/20 06:39:48;;;;;;;;;;;;;;;22.85;46.32;101130.86;1718502;81;20271;-85
2022/05/20 06:39:51;;;;;;;;;;;;;;;22.66;47.09;101127.66;1717849;82;21729;-86
2022/05/20 06:42:19;;;;;;;;;;;;;;;22.61;47.58;101125.05;1714728;82;20238;-85
2022/05/20 06:44:45;;;;;;;;;;;;;;;22.61;47.72;101122.83;1715280;82;20250;-85
2022/05/20 06:47:12;;;;;;;;;;;;;;;22.58;48.11;101130.48;1718525;82;20414;-85
2022/05/20 06:49:38;;;;;;;;;;;;;;;22.54;48.79;101130.09;1718502;82;20245;-85
2022/05/20 06:52:05;;;;;;;;;;;;;;;22.49;48.72;101134.22;1709010;82;22407;-85
2022/05/20 06:54:32;;;;;;;;;;;;;;;22.45;49.07;101137.88;1715682;82;20242;-85
2022/05/20 06:57:02;;;;;;;;;;;;;;;22.47;49.42;101133.36;1713150;82;20903;-85
2022/05/20 06:59:27;;;;;;;;;;;;;;;22.50;49.56;101131.98;1716608;81;20258;-85
2022/05/20 07:01:54;;;;;;;;;;;;;;;22.50;49.72;101134.66;1714116;82;20231;-85
2022/05/20 07:04:20;;;;;;;;;;;;;;;22.49;49.80;101140.05;1735269;82;22768;-86
2022/05/20 07:06:47;;;;;;;;;;;;;;;22.48;50.07;101131.09;1731153;82;20248;-85
2022/05/20 07:09:13;;;;;;;;;;;;;;;22.43;50.38;101130.31;1735258;82;20465;-85
2022/05/20 07:11:40;;;;;;;;;;;;;;;22.43;50.49;101128.97;1732342;81;20563;-85
2022/05/20 07:14:06;;;;;;;;;;;;;;;22.45;51.00;101132.97;1730419;82;20227;-85
2022/05/20 07:16:33;;;;;;;;;;;;;;;22.40;51.01;101137.53;1731609;82;21745;-85
2022/05/20 07:18:59;;;;;;;;;;;;;;;22.44;51.34;101144.60;1729496;82;20233;-85
2022/05/20 07:21:27;;;;;;;;;;;;;;;22.49;51.89;101146.75;1731451;82;20214;-85
2022/05/20 07:23:54;;;;;;;;;;;;;;;22.45;51.62;101147.27;1737767;82;20384;-86
2022/05/20 07:26:21;;;;;;;;;;;;;;;22.42;51.78;101149.11;1721704;82;20253;-85
2022/05/20 07:28:48;;;;;;;;;;;;;;;22.50;51.96;101156.12;1732381;82;21850;-85
2022/05/20 07:31:14;;;;;;;;;;;;;;;22.56;51.85;101159.15;1730874;82;20246;-85
2022/05/20 07:33:40;;;;;;;;;;;;;;;22.54;51.99;101160.06;1723281;82;20254;-86
2022/05/20 07:36:07;;;;;;;;;;;;;;;22.53;52.08;101164.55;1720962;82;20825;-85
2022/05/20 07:38:33;;;;;;;;;;;;;;;22.58;52.12;101162.69;1722274;82;20755;-85
2022/05/20 07:41:00;;;;;;;;;;;;;;;22.69;52.21;101172.77;1720303;83;21790;-85
2022/05/20 07:43:27;;;;;;;;;;;;;;;22.75;52.08;101158.78;1709475;82;20779;-85
2022/05/20 07:45:53;;;;;;;;;;;;;;;22.80;52.11;101165.83;1705877;82;20808;-86
2022/05/20 07:48:22;;;;;;;;;;;;;;;22.84;52.06;101172.94;1704459;83;20254;-85
2022/05/20 07:50:55;;;;;;;;;;;;;;;22.89;52.18;101171.48;1706095;83;20263;-85
2022/05/20 07:53:23;;;;;;;;;;;;;;;22.97;52.28;101174.89;1689101;84;20382;-85
2022/05/20 07:55:58;;;;;;;;;;;;;;;23.09;52.17;101173.83;1708982;83;20255;-86
2022/05/20 07:58:27;;;;;;;;;;;;;;;23.19;51.95;101174.05;1708770;82;20246;-86
2022/05/20 08:00:58;;;;;;;;;;;;;;;23.23;51.92;101177.09;1708905;83;21314;-85
2022/05/20 08:06:08;;;;;;;;;;;;;;;23.29;51.86;101172.95;1709116;83;22575;-85
2022/05/20 08:08:34;;;;;;;;;;;;;;;23.38;52.05;101168.30;1711203;82;20248;-86
2022/05/20 08:11:01;;;;;;;;;;;;;;;23.57;52.04;101171.45;1709047;83;20242;-86
2022/05/20 08:13:29;;;;;;;;;;;;;;;23.74;51.93;101182.70;1709087;83;20250;-86
2022/05/20 08:15:55;;;;;;;;;;;;;;;23.90;51.75;101197.20;1709726;83;20512;-85
2022/05/20 08:18:21;;;;;;;;;;;;;;;23.99;51.28;101184.88;1706478;83;22314;-85
2022/05/20 08:20:48;;;;;;;;;;;;;;;23.95;51.14;101192.57;1708417;82;20307;-85
2022/05/20 08:23:15;;;;;;;;;;;;;;;23.99;51.26;101185.76;1709305;82;20246;-86
2022/05/20 08:25:41;;;;;;;;;;;;;;;24.13;51.04;101184.53;1709439;83;20974;-86
2022/05/20 08:28:08;;;;;;;;;;;;;;;24.15;50.90;101197.48;1709299;83;20251;-86
2022/05/20 08:30:35;;;;;;;;;;;;;;;24.22;50.76;101201.33;1706723;82;21125;-86
2022/05/20 08:33:03;;;;;;;;;;;;;;;24.13;50.31;101208.74;1686842;84;20236;-86
2022/05/20 08:35:29;;;;;;;;;;;;;;;24.01;50.32;101213.96;1709392;83;20226;-87
2022/05/20 08:37:56;;;;;;;;;;;;;;;23.88;50.38;101216.52;1711149;82;20222;-85
2022/05/20 08:40:29;;;;;;;;;;;;;;;23.72;50.38;101210.55;1714461;82;20892;-85
2022/05/20 08:42:58;;;;;;;;;;;;;;;23.62;50.51;101218.81;1714396;82;21966;-85
2022/05/20 08:45:27;;;;;;;;;;;;;;;23.58;50.71;101219.80;1714474;82;21226;-85
2022/05/20 08:47:53;;;;;;;;;;;;;;;23.67;50.71;101207.98;1714145;82;20246;-85
2022/05/20 08:50:38;;;;;;;;;;;;;;;23.65;50.63;101221.44;1712595;82;20283;-85
2022/05/20 08:53:13;;;;;;;;;;;;;;;23.62;50.54;101212.56;1712043;82;21016;-85
2022/05/20 08:55:42;;;;;;;;;;;;;;;23.60;50.50;101210.37;1713452;82;21931;-86
2022/05/20 08:58:08;;;;;;;;;;;;;;;23.49;50.53;101207.91;1713853;82;21003;-86
2022/05/20 09:00:35;;;;;;;;;;;;;;;23.44;50.66;101225.48;1665505;84;20225;-86
2022/05/20 09:03:06;;;;;;;;;;;;;;;23.43;50.83;101208.04;1703326;82;20224;-86
2022/05/20 09:05:33;;;;;;;;;;;;;;;23.53;50.80;101209.60;1712700;82;20228;-86
2022/05/20 09:08:03;;;;;;;;;;;;;;;23.64;50.85;101206.69;1711907;82;21770;-86
2022/05/20 09:10:44;;;;;;;;;;;;;;;23.83;50.65;101216.13;1711227;82;20239;-86
2022/05/20 09:13:12;;;;;;;;;;;;;;;23.84;50.31;101225.98;1714179;83;20419;-86
2022/05/20 09:15:46;;;;;;;;;;;;;;;23.82;50.20;101214.84;1713868;82;20238;-86
2022/05/20 09:18:22;;;;;;;;;;;;;;;24.02;50.26;101218.41;1713574;82;20642;-85
2022/05/20 09:20:52;;;;;;;;;;;;;;;24.45;50.04;101211.98;1709509;82;21688;-85
2022/05/20 09:23:22;;;;;;;;;;;;;;;24.80;49.59;101212.44;1712127;82;20270;-86
2022/05/20 09:25:58;;;;;;;;;;;;;;;25.14;49.03;101219.59;1710270;82;20232;-87
2022/05/20 09:28:38;;;;;;;;;;;;;;;25.21;48.40;101224.36;1714481;82;20239;-86
2022/05/20 09:31:37;;;;;;;;;;;;;;;25.27;48.19;101222.86;1683654;82;20214;-86
2022/05/20 09:34:23;;;;;;;;;;;;;;;25.32;47.91;101226.75;1714738;82;22796;-85
2022/05/20 09:37:17;;;;;;;;;;;;;;;25.46;47.74;101224.55;1685482;83;21015;-86
2022/05/20 09:39:46;;;;;;;;;;;;;;;25.44;47.07;101218.80;1689332;83;20264;-87
2022/05/20 09:42:15;;;;;;;;;;;;;;;25.29;47.04;101224.17;1691896;83;21289;-86
2022/05/20 09:44:45;;;;;;;;;;;;;;;25.32;47.06;101230.36;1691205;83;20845;-86
2022/05/20 09:47:28;;;;;;;;;;;;;;;25.51;46.99;101237.44;1682940;83;21751;-86
2022/05/20 09:50:22;;;;;;;;;;;;;;;25.67;46.53;101224.84;1688130;83;20961;-85
2022/05/20 09:52:58;;;;;;;;;;;;;;;25.80;46.35;101227.10;1691199;83;20272;-85
2022/05/20 09:55:42;;;;;;;;;;;;;;;25.97;46.13;101237.88;1691292;83;20256;-85
2022/05/20 09:58:27;;;;;;;;;;;;;;;25.97;45.75;101232.00;1691176;83;20249;-85
2022/05/20 10:01:04;;;;;;;;;;;;;;;26.01;45.90;101237.31;1694702;83;21717;-85
2022/05/20 10:03:33;;;;;;;;;;;;;;;26.11;45.71;101234.28;1695243;83;20241;-85
2022/05/20 10:06:24;;;;;;;;;;;;;;;26.09;45.30;101229.41;1677605;84;20256;-85
2022/05/20 10:09:18;;;;;;;;;;;;;;;26.02;45.38;101235.05;1692000;83;21379;-85
2022/05/20 10:11:54;;;;;;;;;;;;;;;26.14;45.57;101235.51;1692202;82;20237;-84
2022/05/20 10:14:30;;;;;;;;;;;;;;;26.30;45.45;101238.61;1714343;82;22545;-85
2022/05/20 10:17:06;;;;;;;;;;;;;;;26.45;45.02;101247.14;1714248;82;20227;-85
2022/05/20 10:19:56;;;;;;;;;;;;;;;26.29;44.46;101248.97;1714561;82;20258;-86
2022/05/20 10:22:41;;;;;;;;;;;;;;;26.04;44.55;101244.84;1660269;84;20238;-85
2022/05/20 10:25:24;;;;;;;;;;;;;;;25.85;44.69;101245.85;1654483;85;20213;-86
2022/05/20 10:28:01;;;;;;;;;;;;;;;25.84;44.75;101249.47;1654423;85;21255;-85
2022/05/20 10:33:28;;;;;;;;;;;;;;;25.58;44.62;101253.85;1654353;85;20335;-85
2022/05/20 10:36:20;;;;;;;;;;;;;;;25.40;44.80;101251.22;1654201;85;20227;-85
2022/05/20 10:38:58;;;;;;;;;;;;;;;25.49;44.81;101254.56;1652181;85;20595;-85
2022/05/20 10:41:48;;;;;;;;;;;;;;;25.52;44.99;101247.74;1682664;84;22555;-85
2022/05/20 10:50:28;;;;;;;;;;;;;;;25.62;45.03;101247.91;1688298;83;20196;-85
2022/05/20 10:53:19;;;;;;;;;;;;;;;25.87;45.03;101244.47;1684727;83;20198;-85
2022/05/20 10:56:10;;;;;;;;;;;;;;;26.21;44.52;101248.83;1639919;86;22699;-86
2022/05/20 10:59:05;;;;;;;;;;;;;;;26.18;43.81;101254.74;1621398;86;20208;-85
2022/05/20 11:01:37;;;;;;;;;;;;;;;25.96;43.77;101257.23;1621576;86;20271;-85
2022/05/20 11:04:08;;;;;;;;;;;;;;;25.73;43.75;101252.52;1621759;86;21592;-86
2022/05/20 11:07:00;;;;;;;;;;;;;;;25.48;43.88;101254.16;1625061;86;20270;-86
2022/05/20 11:09:33;;;;;;;;;;;;;;;25.40;44.22;101256.61;1626577;86;21339;-85
2022/05/20 11:12:03;;;;;;;;;;;;;;;25.24;44.45;101246.31;1616307;86;20245;-84
2022/05/20 11:14:48;;;;;;;;;;;;;;;25.20;44.42;101246.82;1612174;86;20397;-85
2022/05/20 11:17:38;;;;;;;;;;;;;;;25.29;44.52;101260.06;1566483;88;20884;-86
2022/05/20 11:20:14;;;;;;;;;;;;;;;25.50;44.19;101263.08;1611689;86;20245;-85
2022/05/20 11:22:56;;;;;;;;;;;;;;;25.77;44.04;101265.41;1617662;86;22644;-85
2022/05/20 11:25:32;;;;;;;;;;;;;;;25.82;43.49;101260.77;1615258;86;20270;-87
2022/05/20 11:28:20;;;;;;;;;;;;;;;25.94;43.42;101259.09;1671170;83;20241;-86
2022/05/20 11:31:16;;;;;;;;;;;;;;;26.15;43.32;101272.37;1679291;83;20368;-86
2022/05/20 11:34:13;;;;;;;;;;;;;;;26.14;42.95;101262.48;1670723;83;20232;-86
2022/05/20 11:37:02;;;;;;;;;;;;;;;26.04;43.12;101258.80;1594282;88;20316;-86
2022/05/20 11:39:59;;;;;;;;;;;;;;;26.00;43.03;101266.11;1625334;86;20202;-86
2022/05/20 11:42:35;;;;;;;;;;;;;;;25.70;42.69;101275.52;1703857;81;20478;-85
2022/05/20 11:45:23;;;;;;;;;;;;;;;25.32;43.17;101276.16;1708475;82;20244;-85
2022/05/20 11:48:05;;;;;;;;;;;;;;;25.48;43.57;101264.47;1711250;82;20264;-85
2022/05/20 11:51:08;;;;;;;;;;;;;;;25.65;43.11;101269.36;1707391;82;21166;-85
2022/05/20 11:53:43;;;;;;;;;;;;;;;25.63;42.65;101280.66;1711157;82;20270;-85
2022/05/20 11:56:28;;;;;;;;;;;;;;;25.40;43.06;101284.03;1713561;82;20917;-85
2022/05/20 11:59:02;;;;;;;;;;;;;;;25.19;43.06;101282.31;1709058;82;20821;-85
2022/05/20 12:01:30;;;;;;;;;;;;;;;24.96;43.50;101273.95;1707235;82;20244;-85
2022/05/20 12:04:07;;;;;;;;;;;;;;;24.95;43.65;101277.59;1693185;82;21752;-85
2022/05/20 12:06:43;;;;;;;;;;;;;;;25.03;43.74;101281.83;1712920;82;20315;-86
2022/05/20 12:09:35;;;;;;;;;;;;;;;25.16;43.78;101279.69;1700348;82;20807;-85
2022/05/20 12:12:18;;;;;;;;;;;;;;;25.34;43.67;101272.95;1709471;82;20210;-85
2022/05/20 12:15:06;;;;;;;;;;;;;;;25.41;43.66;101269.16;1713138;82;20628;-84
2022/05/20 12:17:45;;;;;;;;;;;;;;;25.37;43.38;101268.81;1716214;81;22517;-87
2022/05/20 12:25:59;;;;;;;;;;;;;;;24.14;43.71;101271.01;1702021;82;20313;-86
2022/05/20 12:28:29;;;;;;;;;;;;;;;23.68;44.42;101275.58;1695787;81;20997;-85
2022/05/20 12:31:23;;;;;;;;;;;;;;;23.53;44.86;101282.15;1722614;82;21761;-84
2022/05/20 12:34:05;;;;;;;;;;;;;;;23.38;45.13;101277.97;1723267;82;20202;-85
2022/05/20 12:36:40;;;;;;;;;;;;;;;23.25;45.45;101277.31;1726360;82;20216;-86
2022/05/20 12:39:13;;;;;;;;;;;;;;;23.21;45.79;101279.64;1709635;82;20896;-86
2022/05/20 12:41:45;;;;;;;;;;;;;;;23.32;45.85;101267.35;1694717;82;20197;-85
2022/05/20 12:44:22;;;;;;;;;;;;;;;23.47;45.75;101265.70;1703793;82;22475;-86
2022/05/20 12:47:24;;;;;;;;;;;;;;;23.57;45.64;101269.54;1700457;82;21067;-86
2022/05/20 12:49:57;;;;;;;;;;;;;;;23.61;45.48;101270.80;1702324;82;20276;-87
2022/05/20 12:52:31;;;;;;;;;;;;;;;23.65;45.55;101271.16;1707293;82;20246;-86
2022/05/20 12:54:58;;;;;;;;;;;;;;;23.85;45.60;101260.45;1694922;82;20265;-86
2022/05/20 12:57:31;;;;;;;;;;;;;;;24.05;45.37;101257.33;1696437;82;21012;-84
2022/05/20 13:00:03;;;;;;;;;;;;;;;24.25;45.12;101251.03;1705731;82;20227;-84
2022/05/20 13:02:35;;;;;;;;;;;;;;;24.23;44.99;101249.27;1699780;82;20207;-85
2022/05/20 13:05:07;;;;;;;;;;;;;;;24.15;45.14;101248.59;1695882;82;20226;-85
2022/05/20 13:07:34;;;;;;;;;;;;;;;24.08;44.95;101250.52;1708951;82;20209;-85
2022/05/20 13:10:02;;;;;;;;;;;;;;;24.06;44.94;101253.27;1676098;82;22540;-86
2022/05/20 13:12:34;;;;;;;;;;;;;;;24.11;45.08;101245.08;1686292;83;20759;-85
2022/05/20 13:15:05;;;;;;;;;;;;;;;24.22;44.83;101248.88;1702600;81;20876;-85
2022/05/20 13:17:32;;;;;;;;;;;;;;;24.25;44.72;101235.33;1692758;83;20203;-85
2022/05/20 13:19:59;;;;;;;;;;;;;;;24.28;44.58;101229.01;1696763;82;20269;-85
2022/05/20 13:22:27;;;;;;;;;;;;;;;24.24;44.36;101216.97;1700104;82;21844;-85
2022/05/20 13:24:59;;;;;;;;;;;;;;;24.13;43.92;101217.69;1697950;82;20245;-85
2022/05/20 13:27:26;;;;;;;;;;;;;;;23.88;44.02;101224.58;1706334;81;20215;-85
2022/05/20 13:29:58;;;;;;;;;;;;;;;23.71;44.28;101215.05;1705064;80;20153;-85
2022/05/20 13:32:33;;;;;;;;;;;;;;;23.65;44.16;101217.41;1682981;83;20216;-85
2022/05/20 13:35:01;;;;;;;;;;;;;;;23.60;44.21;101214.40;1679028;83;22004;-86
2022/05/20 13:37:30;;;;;;;;;;;;;;;23.68;44.20;101215.10;1648542;85;20603;-86
2022/05/20 13:40:00;;;;;;;;;;;;;;;23.74;44.03;101209.58;1615297;86;21062;-85
2022/05/20 13:42:28;;;;;;;;;;;;;;;23.82;43.85;101206.31;1614033;86;20252;-85
2022/05/20 13:44:57;;;;;;;;;;;;;;;23.97;43.89;101216.27;1650572;84;20476;-86
2022/05/20 13:50:06;;;;;;;;;;;;;;;24.10;42.92;101220.47;1615328;85;20312;-85
2022/05/20 13:52:35;;;;;;;;;;;;;;;24.03;42.94;101225.56;1677571;84;20229;-85
2022/05/20 13:55:11;;;;;;;;;;;;;;;24.00;43.00;101238.59;1634510;87;21385;-84
2022/05/20 13:57:47;;;;;;;;;;;;;;;24.00;42.79;101238.59;1622377;86;20253;-85
2022/05/20 14:00:32;;;;;;;;;;;;;;;24.09;42.77;101239.33;1614192;86;21651;-85
2022/05/20 14:03:24;;;;;;;;;;;;;;;24.26;42.74;101203.02;1629846;85;20257;-85
2022/05/20 14:05:59;;;;;;;;;;;;;;;24.42;42.23;101202.66;1678645;84;20227;-84
2022/05/20 14:08:27;;;;;;;;;;;;;;;24.51;42.09;101194.31;1670452;84;20647;-85
2022/05/20 14:10:59;;;;;;;;;;;;;;;24.60;41.38;101187.86;1669787;84;20273;-85
2022/05/20 14:13:37;;;;;;;;;;;;;;;24.72;41.20;101196.97;1640735;85;21780;-86
2022/05/20 14:16:15;;;;;;;;;;;;;;;24.76;41.12;101183.84;1661501;84;21376;-85
2022/05/20 14:18:47;;;;;;;;;;;;;;;24.66;40.80;101199.80;1676370;84;20631;-87
2022/05/20 14:21:17;;;;;;;;;;;;;;;24.16;40.35;101206.87;1676211;83;20233;-87
2022/05/20 14:24:01;;;;;;;;;;;;;;;23.79;40.60;101202.34;1665352;84;20267;-87
2022/05/20 14:26:31;;;;;;;;;;;;;;;23.59;41.10;101191.99;1675738;84;21834;-89
2022/05/20 14:29:13;;;;;;;;;;;;;;;23.61;41.36;101200.03;1671499;84;20606;-86
2022/05/20 14:31:49;;;;;;;;;;;;;;;23.62;41.39;101195.97;1669904;84;20266;-86
2022/05/20 14:34:39;;;;;;;;;;;;;;;23.67;41.66;101188.69;1642648;85;20249;-87
2022/05/20 14:37:13;;;;;;;;;;;;;;;23.79;41.62;101188.90;1633703;86;20231;-87
2022/05/20 14:39:40;;;;;;;;;;;;;;;23.83;41.63;101178.49;1628066;86;22146;-87
2022/05/20 14:42:18;;;;;;;;;;;;;;;23.75;41.43;101176.89;1638099;86;20547;-87
2022/05/20 14:44:56;;;;;;;;;;;;;;;23.70;41.68;101182.35;1636555;86;20228;-87
2022/05/20 14:47:28;;;;;;;;;;;;;;;23.77;41.89;101180.42;1642068;86;20609;-86
2022/05/20 14:50:07;;;;;;;;;;;;;;;23.74;41.77;101179.14;1640108;85;20227;-87
2022/05/20 14:52:50;;;;;;;;;;;;;;;23.72;41.83;101183.67;1636260;86;22017;-87
2022/05/20 14:55:33;;;;;;;;;;;;;;;23.66;41.91;101184.69;1641766;86;20234;-86